createdAt,value
2019-06-07T00:00:59.601Z,19.77
2019-06-07T00:03:35.802Z,19.81
2019-06-07T00:06:16.450Z,19.79
2019-06-07T00:08:49.459Z,19.82
2019-06-07T00:11:25.408Z,19.76
2019-06-07T00:14:02.292Z,19.64
2019-06-07T00:16:38.335Z,19.55
2019-06-07T00:19:16.227Z,19.57
2019-06-07T00:22:15.857Z,19.57
2019-06-07T00:24:29.788Z,19.55
2019-06-07T00:27:05.871Z,19.53
2019-06-07T00:29:41.901Z,19.54
2019-06-07T00:32:19.974Z,19.49
2019-06-07T00:34:55.677Z,19.43
2019-06-07T00:37:31.624Z,19.34
2019-06-07T00:40:24.086Z,19.32
2019-06-07T00:42:45.899Z,19.19
2019-06-07T00:45:24.481Z,19.17
2019-06-07T00:47:59.599Z,19.08
2019-06-07T00:50:35.670Z,19.07
2019-06-07T00:53:15.505Z,19.04
2019-06-07T00:55:49.677Z,19.05
2019-06-07T00:58:29.151Z,19.06
2019-06-07T01:01:03.430Z,19.03
2019-06-07T01:03:40.719Z,19.04
2019-06-07T01:06:17.516Z,19.07
2019-06-07T01:08:54.469Z,19.09
2019-06-07T01:11:30.556Z,19.15
2019-06-07T01:14:07.005Z,19.11
2019-06-07T01:16:56.488Z,19.12
2019-06-07T01:19:22.257Z,19.05
2019-06-07T01:21:58.561Z,19.00
2019-06-07T01:24:34.508Z,18.96
2019-06-07T01:27:10.537Z,18.99
2019-06-07T01:29:46.525Z,19.03
2019-06-07T01:32:24.661Z,18.95
2019-06-07T01:35:00.417Z,18.92
2019-06-07T01:37:36.479Z,18.91
2019-06-07T01:40:14.653Z,18.85
2019-06-07T01:42:50.818Z,18.84
2019-06-07T01:45:30.653Z,18.86
2019-06-07T01:48:04.575Z,18.84
2019-06-07T01:50:40.627Z,18.86
2019-06-07T01:53:21.679Z,18.88
2019-06-07T01:55:54.494Z,18.95
2019-06-07T01:58:30.564Z,18.96
2019-06-07T02:01:06.667Z,18.96
2019-06-07T02:03:43.787Z,18.98
2019-06-07T02:06:21.038Z,18.96
2019-06-07T02:08:57.453Z,19.04
2019-06-07T02:11:34.317Z,19.05
2019-06-07T02:14:10.368Z,19.10
2019-06-07T02:16:46.428Z,19.14
2019-06-07T02:19:24.244Z,19.17
2019-06-07T02:22:02.734Z,19.17
2019-06-07T02:24:38.807Z,19.19
2019-06-07T02:27:14.884Z,19.15
2019-06-07T02:29:50.826Z,19.05
2019-06-07T02:32:29.853Z,19.08
2019-06-07T02:35:06.123Z,19.09
2019-06-07T02:37:43.256Z,19.11
2019-06-07T02:40:19.768Z,19.15
2019-06-07T02:42:57.878Z,19.11
2019-06-07T02:45:42.132Z,19.20
2019-06-07T02:48:11.554Z,19.18
2019-06-07T02:50:47.800Z,19.10
2019-06-07T02:53:25.651Z,19.18
2019-06-07T02:58:41.833Z,19.22
2019-06-07T03:01:17.711Z,19.30
2019-06-07T03:03:53.914Z,19.34
2019-06-07T03:06:35.700Z,19.36
2019-06-07T03:09:09.620Z,19.43
2019-06-07T03:11:48.348Z,19.49
2019-06-07T03:14:26.109Z,19.54
2019-06-07T03:17:11.350Z,19.55
2019-06-07T03:19:53.319Z,19.58
2019-06-07T03:22:32.061Z,19.59
2019-06-07T03:25:08.775Z,19.58
2019-06-07T03:27:49.864Z,19.63
2019-06-07T03:30:39.000Z,19.64
2019-06-07T03:33:00.610Z,19.67
2019-06-07T03:35:37.474Z,19.74
2019-06-07T03:38:13.720Z,19.67
2019-06-07T03:40:49.763Z,19.65
2019-06-07T03:43:27.342Z,19.64
2019-06-07T03:46:04.569Z,19.66
2019-06-07T03:48:41.457Z,19.64
2019-06-07T03:51:25.264Z,19.60
2019-06-07T03:53:55.498Z,19.56
2019-06-07T03:56:33.758Z,19.52
2019-06-07T03:59:09.554Z,19.57
2019-06-07T04:01:45.624Z,19.63
2019-06-07T04:04:21.784Z,19.53
2019-06-07T04:06:58.034Z,19.51
2019-06-07T04:09:40.153Z,19.40
2019-06-07T04:12:41.178Z,19.37
2019-06-07T04:15:39.604Z,19.42
2019-06-07T04:18:14.920Z,19.26
2019-06-07T04:20:50.948Z,19.29
2019-06-07T04:23:29.887Z,19.08
2019-06-07T04:26:04.901Z,18.74
2019-06-07T04:29:30.483Z,18.57
2019-06-07T04:31:18.584Z,18.47
2019-06-07T04:33:55.784Z,18.29
2019-06-07T04:36:46.084Z,18.42
2019-06-07T04:39:10.405Z,18.36
2019-06-07T04:41:49.375Z,18.47
2019-06-07T04:44:26.467Z,18.44
2019-06-07T04:47:04.769Z,18.37
2019-06-07T04:49:44.239Z,18.32
2019-06-07T04:52:20.572Z,18.28
2019-06-07T04:54:56.672Z,18.08
2019-06-07T04:57:34.856Z,17.99
2019-06-07T05:00:46.114Z,17.92
2019-06-07T05:02:50.153Z,17.79
2019-06-07T05:05:26.241Z,17.65
2019-06-07T05:08:07.542Z,17.61
2019-06-07T05:10:43.546Z,17.67
2019-06-07T05:13:19.277Z,17.73
2019-06-07T05:15:55.234Z,17.57
2019-06-07T05:18:33.682Z,17.49
2019-06-07T05:21:08.901Z,17.29
2019-06-07T05:24:07.649Z,17.37
2019-06-07T05:26:22.753Z,17.30
2019-06-07T05:28:58.672Z,17.19
2019-06-07T05:31:36.875Z,17.16
2019-06-07T05:34:12.980Z,17.20
2019-06-07T05:37:10.369Z,17.24
2019-06-07T05:39:26.943Z,17.34
2019-06-07T05:42:02.995Z,17.45
2019-06-07T05:44:39.998Z,17.54
2019-06-07T05:47:16.753Z,17.57
2019-06-07T05:50:38.575Z,17.69
2019-06-07T05:52:54.775Z,17.79
2019-06-07T05:55:30.848Z,17.89
2019-06-07T05:58:07.140Z,17.92
2019-06-07T06:00:44.603Z,17.97
2019-06-07T06:03:21.070Z,17.95
2019-06-07T06:05:57.108Z,18.02
2019-06-07T06:08:36.647Z,18.07
2019-06-07T06:11:10.887Z,17.98
2019-06-07T06:14:06.035Z,18.06
2019-06-07T06:16:24.746Z,18.03
2019-06-07T06:19:00.888Z,18.06
2019-06-07T06:21:38.577Z,18.11
2019-06-07T06:24:14.954Z,18.18
2019-06-07T06:26:55.179Z,18.22
2019-06-07T06:29:28.669Z,18.40
2019-06-07T06:34:46.220Z,18.50
2019-06-07T06:37:20.281Z,18.60
2019-06-07T06:39:56.232Z,18.66
2019-06-07T06:42:32.283Z,18.86
2019-06-07T06:45:10.203Z,19.05
2019-06-07T06:47:49.669Z,18.96
2019-06-07T06:50:23.874Z,19.06
2019-06-07T06:53:00.218Z,19.06
2019-06-07T06:55:36.171Z,19.12
2019-06-07T06:58:12.130Z,19.15
2019-06-07T07:01:04.082Z,19.33
2019-06-07T07:03:56.444Z,19.38
2019-06-07T07:06:25.294Z,19.51
2019-06-07T07:08:47.921Z,19.35
2019-06-07T07:11:24.406Z,19.28
2019-06-07T07:14:00.764Z,19.07
2019-06-07T07:16:37.854Z,18.76
2019-06-07T07:19:18.309Z,18.49
2019-06-07T07:21:55.407Z,18.32
2019-06-07T07:24:31.442Z,18.28
2019-06-07T07:27:07.399Z,18.40
2019-06-07T07:29:46.046Z,18.46
2019-06-07T07:32:21.276Z,18.58
2019-06-07T07:35:00.580Z,18.67
2019-06-07T07:37:36.974Z,18.67
2019-06-07T07:40:56.902Z,18.80
2019-06-07T07:43:11.925Z,18.88
2019-06-07T07:45:54.697Z,19.10
2019-06-07T07:48:25.996Z,19.33
2019-06-07T07:51:03.326Z,19.48
2019-06-07T07:53:52.046Z,19.70
2019-06-07T07:56:17.323Z,20.00
2019-06-07T07:59:00.085Z,20.19
2019-06-07T08:01:31.088Z,20.41
2019-06-07T08:04:07.279Z,20.69
2019-06-07T08:06:43.218Z,20.80
2019-06-07T08:09:19.167Z,21.10
2019-06-07T08:12:00.765Z,21.29
2019-06-07T08:14:35.081Z,21.53
2019-06-07T08:17:11.026Z,21.66
2019-06-07T08:19:48.076Z,21.74
2019-06-07T08:22:24.774Z,21.83
2019-06-07T08:25:04.174Z,21.70
2019-06-07T08:28:01.775Z,21.64
2019-06-07T08:31:03.622Z,21.85
2019-06-07T08:33:32.322Z,21.93
2019-06-07T08:36:20.055Z,22.14
2019-06-07T08:38:51.209Z,22.20
2019-06-07T08:41:25.322Z,22.20
2019-06-07T08:44:21.730Z,22.37
2019-06-07T08:46:39.405Z,22.39
2019-06-07T08:49:18.234Z,22.31
2019-06-07T08:51:57.725Z,22.24
2019-06-07T08:54:31.863Z,22.16
2019-06-07T08:57:20.655Z,22.01
2019-06-07T08:59:45.515Z,21.83
2019-06-07T09:02:24.110Z,21.75
2019-06-07T09:05:05.651Z,21.65
2019-06-07T09:07:37.466Z,21.50
2019-06-07T09:10:15.490Z,21.48
2019-06-07T09:12:54.417Z,21.31
2019-06-07T09:15:29.549Z,21.28
2019-06-07T09:20:50.481Z,21.23
2019-06-07T09:23:26.632Z,21.09
2019-06-07T09:26:10.574Z,21.04
2019-06-07T09:28:40.613Z,20.92
2019-06-07T09:31:17.676Z,20.80
2019-06-07T09:33:53.836Z,20.68
2019-06-07T09:36:29.922Z,20.66
2019-06-07T09:39:10.363Z,20.42
2019-06-07T09:41:49.844Z,20.42
2019-06-07T09:44:26.171Z,20.46
2019-06-07T09:47:20.258Z,20.46
2019-06-07T09:49:38.395Z,20.50
2019-06-07T09:52:14.564Z,20.61
2019-06-07T09:55:19.553Z,20.71
2019-06-07T09:57:28.201Z,20.81
2019-06-07T10:00:37.134Z,20.93
2019-06-07T10:02:43.462Z,21.09
2019-06-07T10:05:19.730Z,21.31
2019-06-07T10:08:09.749Z,21.62
2019-06-07T10:13:10.503Z,21.90
2019-06-07T10:15:46.543Z,22.00
2019-06-07T10:18:22.496Z,22.16
2019-06-07T10:20:59.335Z,22.38
2019-06-07T10:23:35.656Z,22.55
2019-06-07T10:26:11.689Z,22.62
2019-06-07T10:28:47.679Z,22.72
2019-06-07T10:31:23.714Z,22.88
2019-06-07T10:34:00.567Z,23.11
2019-06-07T10:36:36.822Z,23.09
2019-06-07T10:39:13.021Z,22.94
2019-06-07T10:41:49.058Z,22.80
2019-06-07T10:44:25.054Z,22.75
2019-06-07T10:47:01.730Z,22.97
2019-06-07T10:49:37.783Z,23.33
2019-06-07T10:52:15.467Z,23.67
2019-06-07T10:54:52.561Z,23.92
2019-06-07T10:57:28.709Z,24.15
2019-06-07T11:00:09.675Z,24.35
2019-06-07T11:02:45.881Z,24.63
2019-06-07T11:05:21.956Z,24.74
2019-06-07T11:08:00.695Z,24.69
2019-06-07T11:10:36.890Z,24.46
2019-06-07T11:13:14.373Z,24.28
2019-06-07T11:15:50.548Z,24.10
2019-06-07T11:18:26.498Z,24.25
2019-06-07T11:21:02.664Z,24.10
2019-06-07T11:23:38.828Z,24.28
2019-06-07T11:26:14.869Z,24.01
2019-06-07T11:28:50.975Z,23.79
2019-06-07T11:31:27.007Z,23.74
2019-06-07T11:34:04.188Z,23.42
2019-06-07T11:36:41.518Z,23.19
2019-06-07T11:39:18.881Z,23.08
2019-06-07T11:41:55.030Z,23.10
2019-06-07T11:44:30.974Z,23.11
2019-06-07T11:47:08.271Z,23.06
2019-06-07T11:49:44.340Z,23.13
2019-06-07T11:52:20.505Z,23.23
2019-06-07T11:54:56.448Z,23.38
2019-06-07T11:57:32.405Z,23.50
2019-06-07T12:00:13.962Z,23.46
2019-06-07T12:02:50.564Z,23.50
2019-06-07T12:05:26.509Z,23.43
2019-06-07T12:08:02.469Z,23.50
2019-06-07T12:10:42.461Z,23.43
2019-06-07T12:13:17.406Z,23.45
2019-06-07T12:15:53.921Z,23.58
2019-06-07T12:18:29.963Z,23.66
2019-06-07T12:21:05.996Z,23.84
2019-06-07T12:23:42.206Z,24.04
2019-06-07T12:26:18.638Z,24.18
2019-06-07T12:28:54.729Z,24.17
2019-06-07T12:31:30.686Z,24.19
2019-06-07T12:34:06.843Z,24.16
2019-06-07T12:36:42.805Z,24.12
2019-06-07T12:39:18.761Z,24.26
2019-06-07T12:41:56.164Z,24.58
2019-06-07T12:44:32.190Z,24.66
2019-06-07T12:47:08.165Z,24.82
2019-06-07T12:49:44.302Z,24.97
2019-06-07T12:52:22.843Z,24.90
2019-06-07T12:54:58.592Z,24.80
2019-06-07T12:57:34.961Z,24.92
2019-06-07T13:00:11.923Z,25.13
2019-06-07T13:02:48.489Z,25.14
2019-06-07T13:05:24.476Z,25.09
2019-06-07T13:08:00.532Z,25.30
2019-06-07T13:10:36.673Z,25.33
2019-06-07T13:13:13.167Z,25.22
2019-06-07T13:15:49.110Z,25.20
2019-06-07T13:18:25.702Z,25.32
2019-06-07T13:21:01.647Z,25.40
2019-06-07T13:23:37.818Z,25.64
2019-06-07T13:26:13.846Z,25.63
2019-06-07T13:28:49.825Z,25.72
2019-06-07T13:31:27.223Z,25.65
2019-06-07T13:34:03.579Z,25.71
2019-06-07T13:36:39.526Z,25.83
2019-06-07T13:39:15.481Z,25.95
2019-06-07T13:41:51.458Z,25.96
2019-06-07T13:44:29.176Z,25.91
2019-06-07T13:47:05.415Z,25.88
2019-06-07T13:49:41.867Z,25.66
2019-06-07T13:52:17.824Z,25.38
2019-06-07T13:54:53.782Z,25.46
2019-06-07T13:57:29.737Z,25.69
2019-06-07T14:00:11.436Z,26.07
2019-06-07T14:02:47.690Z,26.52
2019-06-07T14:05:25.047Z,26.48
2019-06-07T14:08:01.254Z,26.54
2019-06-07T14:10:37.303Z,26.74
2019-06-07T14:13:13.573Z,26.66
2019-06-07T14:15:49.520Z,26.41
2019-06-07T14:18:26.481Z,26.21
2019-06-07T14:21:02.563Z,25.93
2019-06-07T14:23:48.350Z,25.84
2019-06-07T14:26:16.423Z,26.09
2019-06-07T14:28:52.455Z,26.08
2019-06-07T14:31:28.437Z,25.83
2019-06-07T14:34:04.672Z,25.88
2019-06-07T14:36:41.778Z,26.15
2019-06-07T14:39:17.756Z,26.02
2019-06-07T14:42:08.409Z,25.88
2019-06-07T14:44:31.669Z,26.04
2019-06-07T14:47:07.760Z,26.40
2019-06-07T14:49:43.719Z,26.89
2019-06-07T14:52:19.673Z,26.83
2019-06-07T14:54:56.258Z,26.75
2019-06-07T14:57:33.700Z,26.51
2019-06-07T15:00:14.917Z,26.37
2019-06-07T15:02:52.110Z,26.43
2019-06-07T15:05:32.823Z,26.70
2019-06-07T15:08:09.025Z,26.78
2019-06-07T15:10:44.996Z,26.80
2019-06-07T15:13:23.207Z,27.11
2019-06-07T15:15:59.243Z,27.39
2019-06-07T15:18:36.104Z,27.18
2019-06-07T15:21:12.288Z,27.30
2019-06-07T15:23:48.470Z,27.49
2019-06-07T15:26:24.412Z,27.57
2019-06-07T15:29:01.339Z,27.23
2019-06-07T15:31:38.655Z,26.99
2019-06-07T15:34:14.945Z,26.73
2019-06-07T15:36:50.985Z,26.82
2019-06-07T15:39:26.971Z,26.70
2019-06-07T15:42:03.337Z,26.55
2019-06-07T15:44:39.587Z,26.39
2019-06-07T15:47:15.658Z,26.61
2019-06-07T15:49:51.610Z,26.59
2019-06-07T15:52:27.790Z,26.83
2019-06-07T15:55:05.366Z,27.14
2019-06-07T15:57:42.149Z,27.30
2019-06-07T16:00:19.998Z,27.57
2019-06-07T16:02:56.413Z,27.72
2019-06-07T16:05:32.357Z,27.43
2019-06-07T16:08:08.384Z,27.67
2019-06-07T16:10:45.139Z,27.57
2019-06-07T16:13:21.351Z,27.71
2019-06-07T16:15:57.307Z,27.59
2019-06-07T16:18:33.345Z,27.45
2019-06-07T16:21:09.341Z,27.60
2019-06-07T16:23:45.921Z,27.61
2019-06-07T16:26:21.855Z,27.26
2019-06-07T16:28:57.915Z,27.14
2019-06-07T16:31:35.233Z,27.33
2019-06-07T16:34:11.780Z,27.63
2019-06-07T16:36:48.842Z,27.64
2019-06-07T16:39:25.015Z,27.18
2019-06-07T16:42:01.066Z,26.71
2019-06-07T16:44:38.639Z,26.40
2019-06-07T16:47:14.837Z,26.29
2019-06-07T16:49:50.884Z,26.21
2019-06-07T16:52:27.166Z,26.15
2019-06-07T16:55:03.127Z,26.02
2019-06-07T16:57:40.817Z,26.04
2019-06-07T17:00:17.798Z,25.95
2019-06-07T17:02:53.961Z,25.93
2019-06-07T17:05:30.113Z,25.98
2019-06-07T17:08:06.638Z,26.08
2019-06-07T17:10:42.675Z,26.07
2019-06-07T17:13:32.426Z,26.15
2019-06-07T17:15:56.602Z,26.11
2019-06-07T17:18:32.665Z,26.10
2019-06-07T17:21:08.786Z,26.11
2019-06-07T17:23:45.901Z,26.00
2019-06-07T17:26:21.950Z,25.83
2019-06-07T17:28:57.941Z,25.62
2019-06-07T17:31:33.885Z,25.57
2019-06-07T17:34:11.172Z,25.48
2019-06-07T17:36:48.535Z,25.51
2019-06-07T17:39:26.770Z,25.45
2019-06-07T17:42:03.543Z,25.38
2019-06-07T17:44:39.499Z,25.26
2019-06-07T17:47:15.650Z,25.25
2019-06-07T17:49:52.245Z,25.12
2019-06-07T17:52:28.600Z,25.09
2019-06-07T17:55:10.587Z,25.04
2019-06-07T17:57:46.685Z,24.97
2019-06-07T18:00:33.332Z,24.93
2019-06-07T18:03:01.329Z,24.95
2019-06-07T18:05:37.293Z,24.87
2019-06-07T18:08:13.826Z,24.82
2019-06-07T18:10:50.121Z,24.72
2019-06-07T18:13:26.712Z,24.61
2019-06-07T18:16:02.748Z,24.44
2019-06-07T18:18:39.222Z,24.30
2019-06-07T18:21:15.169Z,24.18
2019-06-07T18:23:52.871Z,24.06
2019-06-07T18:26:30.066Z,23.94
2019-06-07T18:29:06.014Z,23.81
2019-06-07T18:31:42.103Z,23.69
2019-06-07T18:34:18.232Z,23.66
2019-06-07T18:36:55.217Z,23.55
2019-06-07T18:39:32.399Z,23.43
2019-06-07T18:42:08.660Z,23.28
2019-06-07T18:44:44.602Z,23.16
2019-06-07T18:47:20.585Z,23.08
2019-06-07T18:49:58.536Z,22.95
2019-06-07T18:52:37.303Z,22.82
2019-06-07T18:55:13.783Z,22.71
2019-06-07T18:57:50.209Z,22.61
2019-06-07T19:00:27.455Z,22.46
2019-06-07T19:03:05.226Z,22.39
2019-06-07T19:05:41.492Z,22.23
2019-06-07T19:08:17.528Z,22.21
2019-06-07T19:10:54.724Z,22.12
2019-06-07T19:13:30.992Z,22.07
2019-06-07T19:16:07.044Z,22.00
2019-06-07T19:18:43.084Z,21.96
2019-06-07T19:21:19.055Z,21.90
2019-06-07T19:23:56.258Z,21.83
2019-06-07T19:26:32.294Z,21.79
2019-06-07T19:29:08.358Z,21.74
2019-06-07T19:31:45.453Z,21.68
2019-06-07T19:34:22.842Z,21.65
2019-06-07T19:39:33.542Z,21.57
2019-06-07T19:42:09.577Z,21.53
2019-06-07T19:44:54.470Z,21.49
2019-06-07T19:47:24.364Z,21.47
2019-06-07T19:50:00.948Z,21.43
2019-06-07T19:52:37.074Z,21.41
2019-06-07T19:55:14.199Z,21.38
2019-06-07T19:57:50.307Z,21.33
2019-06-07T20:00:26.928Z,21.28
2019-06-07T20:03:04.449Z,21.24
2019-06-07T20:05:40.601Z,21.22
2019-06-07T20:08:16.590Z,21.18
2019-06-07T20:10:52.586Z,21.17
2019-06-07T20:13:28.644Z,21.15
2019-06-07T20:16:05.105Z,21.13
2019-06-07T20:18:41.181Z,21.09
2019-06-07T20:21:17.221Z,21.05
2019-06-07T20:23:53.308Z,21.00
2019-06-07T20:26:29.557Z,20.94
2019-06-07T20:29:05.806Z,20.91
2019-06-07T20:31:41.865Z,20.87
2019-06-07T20:34:17.816Z,20.82
2019-06-07T20:36:53.741Z,20.79
2019-06-07T20:39:29.734Z,20.75
2019-06-07T20:42:05.987Z,20.74
2019-06-07T20:44:42.060Z,20.72
2019-06-07T20:47:18.030Z,20.69
2019-06-07T20:49:54.087Z,20.65
2019-06-07T20:52:30.028Z,20.63
2019-06-07T20:55:07.221Z,20.58
2019-06-07T20:57:43.169Z,20.53
2019-06-07T21:00:22.135Z,20.48
2019-06-07T21:02:57.212Z,20.39
2019-06-07T21:05:33.169Z,20.29
2019-06-07T21:08:12.695Z,20.22
2019-06-07T21:10:46.706Z,20.18
2019-06-07T21:13:22.684Z,20.14
2019-06-07T21:15:59.904Z,20.10
2019-06-07T21:18:36.249Z,20.07
2019-06-07T21:21:12.380Z,20.03
2019-06-07T21:23:48.480Z,19.99
2019-06-07T21:26:24.420Z,19.94
2019-06-07T21:29:01.437Z,19.92
2019-06-07T21:31:37.670Z,19.87
2019-06-07T21:34:14.245Z,19.86
2019-06-07T21:36:50.413Z,19.83
2019-06-07T21:39:26.350Z,19.79
2019-06-07T21:42:02.311Z,19.79
2019-06-07T21:44:38.276Z,19.79
2019-06-07T21:47:14.333Z,19.80
2019-06-07T21:49:50.390Z,19.83
2019-06-07T21:52:27.688Z,19.85
2019-06-07T21:55:05.058Z,19.88
2019-06-07T21:57:41.018Z,19.92
2019-06-07T22:00:28.856Z,19.92
2019-06-07T22:03:07.323Z,19.93
2019-06-07T22:05:43.438Z,19.93
2019-06-07T22:08:19.491Z,19.93
2019-06-07T22:10:55.455Z,19.92
2019-06-07T22:13:31.506Z,19.92
2019-06-07T22:16:22.427Z,19.88
2019-06-07T22:18:45.172Z,19.87
2019-06-07T22:21:21.117Z,19.86
2019-06-07T22:23:57.070Z,19.82
2019-06-07T22:26:33.032Z,19.76
2019-06-07T22:29:10.237Z,19.69
2019-06-07T22:31:46.375Z,19.64
2019-06-07T22:34:22.469Z,19.61
2019-06-07T22:36:58.604Z,19.59
2019-06-07T22:39:34.663Z,19.57
2019-06-07T22:42:13.498Z,19.56
2019-06-07T22:44:50.041Z,19.55
2019-06-07T22:47:26.326Z,19.49
2019-06-07T22:50:10.718Z,19.46
2019-06-07T22:52:47.027Z,19.45
2019-06-07T22:55:23.091Z,19.42
2019-06-07T22:58:02.116Z,19.41
2019-06-07T23:00:39.613Z,19.40
2019-06-07T23:03:16.765Z,19.38
2019-06-07T23:05:52.967Z,19.34
2019-06-07T23:08:29.018Z,19.32
2019-06-07T23:11:05.070Z,19.28
2019-06-07T23:13:41.025Z,19.27
2019-06-07T23:16:17.778Z,19.23
2019-06-07T23:18:54.638Z,19.17
2019-06-07T23:21:30.644Z,19.14
2019-06-07T23:24:06.704Z,19.10
2019-06-07T23:26:42.757Z,19.05
2019-06-07T23:29:18.718Z,18.97
2019-06-07T23:31:54.870Z,18.92
2019-06-07T23:34:30.834Z,18.88
2019-06-07T23:37:06.886Z,18.84
2019-06-07T23:39:42.840Z,18.81
2019-06-07T23:42:19.732Z,18.76
2019-06-07T23:44:55.878Z,18.73
2019-06-07T23:47:31.944Z,18.63
2019-06-07T23:50:08.301Z,18.55
2019-06-07T23:52:45.395Z,18.48
2019-06-07T23:55:22.276Z,18.44
2019-06-07T23:57:59.451Z,18.37
